createdAt,value
2022-12-11T00:00:09.983Z,29.58
2022-12-11T00:02:37.582Z,32.08
2022-12-11T00:05:06.015Z,28.83
2022-12-11T00:07:33.884Z,28.20
2022-12-11T00:10:02.022Z,29.30
2022-12-11T00:12:31.388Z,30.47
2022-12-11T00:14:59.091Z,30.60
2022-12-11T00:17:27.158Z,29.38
2022-12-11T00:19:55.507Z,27.70
2022-12-11T00:22:23.152Z,31.27
2022-12-11T00:24:51.574Z,29.15
2022-12-11T00:27:19.198Z,28.25
2022-12-11T00:29:48.244Z,28.23
2022-12-11T00:32:15.902Z,37.47
2022-12-11T00:34:43.620Z,39.90
2022-12-11T00:37:11.425Z,30.75
2022-12-11T00:39:42.536Z,27.75
2022-12-11T00:42:10.717Z,30.30
2022-12-11T00:44:38.440Z,30.30
2022-12-11T00:47:06.119Z,30.45
2022-12-11T00:49:33.822Z,29.73
2022-12-11T00:52:01.416Z,41.38
2022-12-11T00:54:29.052Z,31.02
2022-12-11T00:56:56.850Z,32.13
2022-12-11T00:59:24.546Z,30.92
2022-12-11T01:01:52.582Z,32.17
2022-12-11T01:04:20.244Z,32.50
2022-12-11T01:06:47.841Z,32.10
2022-12-11T01:09:41.519Z,29.48
2022-12-11T01:12:09.393Z,27.52
2022-12-11T01:14:37.216Z,32.97
2022-12-11T01:17:05.104Z,30.70
2022-12-11T01:19:33.384Z,34.28
2022-12-11T01:22:01.125Z,29.00
2022-12-11T01:24:28.838Z,30.33
2022-12-11T01:26:56.633Z,30.23
2022-12-11T01:29:24.264Z,30.27
2022-12-11T01:31:51.943Z,33.03
2022-12-11T01:34:19.707Z,31.15
2022-12-11T01:36:47.328Z,33.22
2022-12-11T01:39:15.040Z,38.65
2022-12-11T01:41:42.725Z,33.10
2022-12-11T01:44:16.377Z,32.00
2022-12-11T01:46:44.406Z,30.48
2022-12-11T01:49:15.742Z,32.40
2022-12-11T01:52:03.797Z,32.05
2022-12-11T01:54:31.814Z,31.90
2022-12-11T01:57:06.219Z,28.45
2022-12-11T01:59:37.907Z,27.30
2022-12-11T02:02:21.131Z,30.67
2022-12-11T02:04:49.443Z,32.38
2022-12-11T02:07:17.444Z,29.60
2022-12-11T02:09:47.675Z,30.65
2022-12-11T02:12:31.027Z,32.28
2022-12-11T02:15:33.027Z,31.75
2022-12-11T02:18:27.790Z,30.60
2022-12-11T02:21:09.006Z,52.70
2022-12-11T02:24:04.683Z,36.83
2022-12-11T02:27:17.115Z,29.13
2022-12-11T02:30:11.973Z,29.70
2022-12-11T02:32:56.727Z,26.98
2022-12-11T02:35:42.198Z,28.67
2022-12-11T02:38:21.346Z,30.15
2022-12-11T02:43:19.051Z,26.45
2022-12-11T02:45:48.837Z,26.45
2022-12-11T02:48:19.851Z,28.38
2022-12-11T02:50:53.650Z,28.67
2022-12-11T02:53:26.384Z,26.63
2022-12-11T02:56:10.558Z,24.70
2022-12-11T02:58:46.872Z,24.98
2022-12-11T03:01:14.704Z,27.77
2022-12-11T03:03:42.747Z,30.77
2022-12-11T03:06:18.383Z,27.83
2022-12-11T03:08:46.482Z,31.10
2022-12-11T03:11:14.507Z,28.75
2022-12-11T03:13:43.145Z,25.75
2022-12-11T03:16:35.808Z,26.98
2022-12-11T03:19:30.169Z,28.88
2022-12-11T03:22:12.929Z,27.83
2022-12-11T03:24:47.447Z,26.73
2022-12-11T03:27:42.761Z,32.72
2022-12-11T03:30:19.365Z,25.15
2022-12-11T03:32:59.091Z,29.10
2022-12-11T03:35:35.081Z,28.98
2022-12-11T03:38:11.343Z,26.05
2022-12-11T03:40:42.800Z,27.77
2022-12-11T03:43:12.351Z,26.48
2022-12-11T03:45:42.014Z,29.13
2022-12-11T03:48:11.982Z,30.30
2022-12-11T03:50:41.083Z,26.48
2022-12-11T03:53:14.929Z,27.13
2022-12-11T03:55:43.351Z,26.67
2022-12-11T03:58:11.200Z,31.90
2022-12-11T04:00:39.459Z,25.15
2022-12-11T04:03:14.153Z,27.38
2022-12-11T04:05:54.799Z,23.17
2022-12-11T04:08:23.864Z,27.95
2022-12-11T04:13:39.897Z,23.85
2022-12-11T04:16:08.096Z,26.67
2022-12-11T04:18:54.842Z,24.52
2022-12-11T04:21:41.102Z,25.63
2022-12-11T04:24:15.217Z,22.90
2022-12-11T04:26:47.524Z,24.25
2022-12-11T04:29:15.561Z,27.52
2022-12-11T04:31:43.219Z,24.25
2022-12-11T04:34:11.047Z,25.40
2022-12-11T04:36:38.845Z,25.73
2022-12-11T04:39:06.829Z,25.48
2022-12-11T04:41:35.224Z,26.80
2022-12-11T04:44:03.105Z,30.75
2022-12-11T04:46:30.886Z,33.47
2022-12-11T04:49:00.236Z,31.35
2022-12-11T04:51:28.889Z,26.02
2022-12-11T04:53:58.384Z,23.08
2022-12-11T04:56:26.134Z,25.40
2022-12-11T04:58:53.787Z,27.77
2022-12-11T05:01:23.403Z,23.63
2022-12-11T05:03:51.729Z,27.40
2022-12-11T05:06:19.361Z,25.83
2022-12-11T05:08:47.081Z,23.55
2022-12-11T05:11:16.322Z,22.92
2022-12-11T05:13:44.949Z,24.35
2022-12-11T05:16:16.654Z,22.90
2022-12-11T05:18:44.894Z,24.67
2022-12-11T05:21:14.854Z,21.97
2022-12-11T05:23:43.385Z,24.75
2022-12-11T05:26:18.186Z,24.45
2022-12-11T05:28:46.889Z,22.95
2022-12-11T05:31:21.352Z,20.27
2022-12-11T05:33:50.566Z,21.10
2022-12-11T05:36:30.480Z,22.42
2022-12-11T05:39:00.331Z,20.98
2022-12-11T05:41:30.970Z,21.02
2022-12-11T05:43:58.947Z,21.52
2022-12-11T05:46:29.410Z,18.50
2022-12-11T05:49:00.897Z,23.40
2022-12-11T05:51:30.137Z,20.20
2022-12-11T05:53:58.750Z,18.92
2022-12-11T05:56:30.998Z,22.80
2022-12-11T05:59:01.179Z,20.23
2022-12-11T06:01:42.315Z,21.88
2022-12-11T06:04:12.246Z,22.95
2022-12-11T06:06:40.530Z,23.42
2022-12-11T06:09:08.730Z,25.30
2022-12-11T06:11:36.900Z,23.40
2022-12-11T06:14:04.842Z,20.52
2022-12-11T06:16:33.077Z,21.13
2022-12-11T06:19:00.968Z,21.80
2022-12-11T06:21:32.366Z,21.83
2022-12-11T06:24:03.059Z,23.65
2022-12-11T06:26:32.085Z,21.30
2022-12-11T06:29:00.269Z,21.45
2022-12-11T06:31:27.986Z,20.70
2022-12-11T06:33:55.894Z,20.88
2022-12-11T06:36:25.175Z,20.30
2022-12-11T06:38:53.156Z,24.33
2022-12-11T06:41:20.949Z,25.83
2022-12-11T06:43:48.757Z,27.33
2022-12-11T06:46:19.979Z,21.00
2022-12-11T06:48:48.695Z,23.70
2022-12-11T06:51:21.003Z,25.17
2022-12-11T06:53:56.958Z,23.90
2022-12-11T06:56:25.323Z,21.95
2022-12-11T06:58:53.338Z,22.13
2022-12-11T07:01:25.251Z,23.48
2022-12-11T07:03:59.131Z,22.85
2022-12-11T07:06:28.882Z,23.60
2022-12-11T07:08:57.520Z,28.10
2022-12-11T07:11:25.568Z,21.92
2022-12-11T07:13:53.190Z,24.70
2022-12-11T07:16:21.484Z,24.40
2022-12-11T07:18:51.160Z,27.77
2022-12-11T07:21:20.480Z,28.80
2022-12-11T07:23:49.738Z,23.65
2022-12-11T07:26:20.727Z,24.65
2022-12-11T07:28:49.616Z,23.95
2022-12-11T07:31:22.102Z,29.25
2022-12-11T07:33:55.120Z,30.15
2022-12-11T07:36:24.333Z,30.10
2022-12-11T07:38:53.006Z,29.52
2022-12-11T07:41:21.634Z,30.35
2022-12-11T07:43:55.468Z,28.85
2022-12-11T07:46:26.683Z,25.52
2022-12-11T07:48:54.567Z,23.60
2022-12-11T07:51:27.992Z,24.88
2022-12-11T07:54:08.982Z,22.83
2022-12-11T07:56:36.733Z,25.40
2022-12-11T07:59:06.002Z,25.55
2022-12-11T08:01:36.693Z,21.63
2022-12-11T08:04:10.703Z,25.35
2022-12-11T08:06:40.304Z,26.27
2022-12-11T08:09:17.314Z,24.98
2022-12-11T08:11:51.243Z,27.05
2022-12-11T08:14:20.110Z,27.17
2022-12-11T08:16:48.954Z,30.77
2022-12-11T08:19:18.046Z,24.92
2022-12-11T08:21:45.965Z,26.23
2022-12-11T08:24:16.488Z,27.00
2022-12-11T08:26:45.860Z,26.80
2022-12-11T08:29:14.113Z,27.27
2022-12-11T08:31:42.712Z,24.55
2022-12-11T08:34:13.802Z,28.45
2022-12-11T08:36:41.417Z,22.52
2022-12-11T08:39:09.241Z,29.00
2022-12-11T08:41:36.966Z,29.35
2022-12-11T08:44:06.107Z,27.50
2022-12-11T08:46:39.846Z,27.30
2022-12-11T08:49:07.644Z,30.83
2022-12-11T08:51:35.266Z,30.00
2022-12-11T08:54:02.963Z,28.20
2022-12-11T08:56:31.208Z,28.80
2022-12-11T08:59:01.346Z,28.13
2022-12-11T09:01:30.081Z,29.10
2022-12-11T09:03:58.682Z,31.27
2022-12-11T09:06:29.682Z,29.08
2022-12-11T09:09:01.700Z,31.65
2022-12-11T09:11:33.848Z,26.85
2022-12-11T09:14:07.232Z,24.88
2022-12-11T09:16:39.700Z,28.80
2022-12-11T09:19:13.685Z,28.52
2022-12-11T09:21:43.367Z,29.65
2022-12-11T09:24:12.722Z,30.67
2022-12-11T09:26:41.356Z,27.98
2022-12-11T09:29:10.671Z,33.40
2022-12-11T09:31:41.077Z,32.70
2022-12-11T09:34:12.543Z,32.38
2022-12-11T09:36:42.462Z,33.05
2022-12-11T09:39:12.280Z,34.88
2022-12-11T09:41:45.914Z,31.27
2022-12-11T09:44:33.299Z,35.40
2022-12-11T09:47:01.733Z,35.63
2022-12-11T09:49:41.640Z,37.85
2022-12-11T09:52:29.793Z,33.78
2022-12-11T09:55:01.730Z,35.17
2022-12-11T09:57:59.044Z,31.88
2022-12-11T10:00:37.833Z,33.22
2022-12-11T10:03:37.305Z,35.47
2022-12-11T10:06:11.037Z,33.15
2022-12-11T10:09:27.727Z,30.85
2022-12-11T10:12:23.601Z,33.67
2022-12-11T10:15:20.439Z,35.30
2022-12-11T10:17:48.185Z,35.05
2022-12-11T10:20:28.726Z,34.13
2022-12-11T10:22:57.870Z,32.80
2022-12-11T10:28:17.885Z,38.38
2022-12-11T10:31:02.391Z,42.25
2022-12-11T10:33:52.393Z,35.90
2022-12-11T10:36:28.707Z,33.70
2022-12-11T10:38:56.838Z,30.48
2022-12-11T10:41:43.691Z,33.77
2022-12-11T10:44:29.280Z,32.88
2022-12-11T10:47:14.620Z,34.67
2022-12-11T10:49:58.290Z,30.20
2022-12-11T10:52:34.016Z,34.45
2022-12-11T10:55:06.731Z,32.33
2022-12-11T10:57:39.558Z,29.35
2022-12-11T11:00:31.308Z,28.63
2022-12-11T11:02:59.827Z,30.38
2022-12-11T11:05:37.167Z,33.40
2022-12-11T11:08:21.476Z,30.50
2022-12-11T11:11:02.938Z,33.95
2022-12-11T11:13:32.336Z,33.60
2022-12-11T11:16:05.673Z,29.38
2022-12-11T11:18:34.814Z,33.55
2022-12-11T11:23:30.669Z,28.25
2022-12-11T11:26:01.556Z,32.45
2022-12-11T11:28:36.839Z,34.50
2022-12-11T11:31:12.139Z,30.85
2022-12-11T11:33:55.048Z,31.00
2022-12-11T11:36:29.578Z,30.42
2022-12-11T11:39:37.785Z,33.60
2022-12-11T11:42:21.547Z,32.55
2022-12-11T11:45:18.134Z,29.60
2022-12-11T11:48:11.634Z,33.80
2022-12-11T11:50:45.695Z,30.10
2022-12-11T11:53:23.818Z,41.92
2022-12-11T11:56:23.874Z,42.67
2022-12-11T11:59:19.428Z,36.85
2022-12-11T12:01:47.895Z,30.10
2022-12-11T12:04:16.206Z,30.60
2022-12-11T12:07:19.809Z,26.75
2022-12-11T12:09:54.266Z,26.25
2022-12-11T12:13:18.781Z,28.88
2022-12-11T12:16:02.573Z,30.05
2022-12-11T12:18:43.032Z,26.75
2022-12-11T12:21:30.612Z,31.38
2022-12-11T12:24:24.391Z,26.65
2022-12-11T12:27:51.167Z,26.67
2022-12-11T12:30:21.984Z,30.48
2022-12-11T12:32:56.275Z,36.72
2022-12-11T12:35:34.695Z,37.75
2022-12-11T12:38:22.787Z,28.77
2022-12-11T12:41:24.484Z,28.00
2022-12-11T12:44:38.703Z,29.75
2022-12-11T12:47:13.884Z,27.23
2022-12-11T12:49:50.335Z,29.20
2022-12-11T12:52:34.768Z,26.88
2022-12-11T12:55:25.325Z,27.77
2022-12-11T12:58:00.616Z,26.60
2022-12-11T13:00:41.707Z,29.42
2022-12-11T13:03:30.455Z,26.42
2022-12-11T13:06:10.519Z,29.33
2022-12-11T13:08:49.024Z,27.00
2022-12-11T13:11:21.060Z,29.00
2022-12-11T13:14:16.386Z,26.85
2022-12-11T13:16:47.073Z,28.35
2022-12-11T13:19:24.010Z,31.05
2022-12-11T13:22:13.404Z,29.77
2022-12-11T13:25:02.613Z,26.17
2022-12-11T13:27:39.903Z,26.60
2022-12-11T13:30:15.560Z,31.15
2022-12-11T13:32:59.610Z,30.85
2022-12-11T13:35:27.433Z,28.73
2022-12-11T13:38:03.948Z,30.13
2022-12-11T13:41:24.194Z,32.88
2022-12-11T13:45:14.987Z,31.65
2022-12-11T13:49:07.027Z,28.30
2022-12-11T13:52:31.011Z,29.30
2022-12-11T13:55:29.641Z,30.15
2022-12-11T13:57:58.442Z,30.55
2022-12-11T14:00:32.972Z,27.13
2022-12-11T14:03:09.660Z,29.50
2022-12-11T14:05:37.654Z,31.88
2022-12-11T14:08:11.745Z,31.50
2022-12-11T14:10:40.237Z,29.23
2022-12-11T14:13:29.247Z,29.77
2022-12-11T14:18:30.672Z,26.02
2022-12-11T14:21:02.334Z,29.05
2022-12-11T14:23:36.158Z,30.63
2022-12-11T14:26:17.351Z,26.83
2022-12-11T14:28:45.294Z,26.80
2022-12-11T14:31:41.996Z,28.38
2022-12-11T14:34:19.997Z,28.27
2022-12-11T14:36:49.684Z,24.67
2022-12-11T14:39:54.914Z,26.15
2022-12-11T14:42:31.369Z,34.13
2022-12-11T14:45:13.541Z,31.58
2022-12-11T14:47:44.392Z,35.95
2022-12-11T14:50:24.134Z,39.10
2022-12-11T14:53:04.482Z,37.67
2022-12-11T14:55:36.615Z,35.10
2022-12-11T14:58:22.247Z,36.20
2022-12-11T15:01:00.584Z,35.50
2022-12-11T15:03:40.922Z,39.97
2022-12-11T15:06:42.489Z,38.70
2022-12-11T15:09:37.964Z,42.15
2022-12-11T15:12:12.768Z,37.47
2022-12-11T15:14:58.516Z,38.50
2022-12-11T15:17:28.104Z,38.13
2022-12-11T15:20:07.771Z,37.47
2022-12-11T15:22:35.964Z,40.33
2022-12-11T15:25:05.883Z,43.43
2022-12-11T15:27:38.059Z,42.75
2022-12-11T15:30:27.174Z,44.05
2022-12-11T15:33:09.977Z,43.97
2022-12-11T15:35:40.308Z,38.45
2022-12-11T15:38:47.280Z,40.15
2022-12-11T15:41:21.128Z,37.65
2022-12-11T15:43:58.823Z,41.92
2022-12-11T15:46:28.142Z,44.05
2022-12-11T15:48:57.666Z,45.13
2022-12-11T15:51:27.321Z,44.20
2022-12-11T15:53:55.000Z,52.50
2022-12-11T15:56:22.755Z,44.20
2022-12-11T15:58:50.897Z,43.28
2022-12-11T16:01:18.633Z,44.10
2022-12-11T16:03:46.296Z,44.67
2022-12-11T16:06:14.541Z,49.42
2022-12-11T16:08:45.902Z,47.33
2022-12-11T16:11:14.475Z,39.75
2022-12-11T16:13:42.111Z,52.75
2022-12-11T16:16:09.839Z,41.60
2022-12-11T16:18:37.575Z,47.53
2022-12-11T16:21:06.733Z,48.67
2022-12-11T16:23:34.738Z,46.53
2022-12-11T16:26:09.632Z,50.13
2022-12-11T16:28:37.651Z,50.60
2022-12-11T16:31:10.724Z,49.90
2022-12-11T16:33:39.016Z,57.40
2022-12-11T16:36:18.717Z,48.40
2022-12-11T16:38:53.785Z,49.03
2022-12-11T16:41:23.450Z,49.88
2022-12-11T16:46:24.303Z,50.85
2022-12-11T16:48:52.213Z,53.00
2022-12-11T16:51:19.886Z,49.90
2022-12-11T16:53:47.615Z,50.67
2022-12-11T16:57:10.353Z,52.28
2022-12-11T16:59:40.580Z,50.97
2022-12-11T17:02:10.717Z,49.45
2022-12-11T17:04:39.404Z,54.97
2022-12-11T17:07:07.485Z,53.10
2022-12-11T17:09:36.177Z,53.13
2022-12-11T17:12:05.529Z,55.17
2022-12-11T17:14:33.237Z,45.85
2022-12-11T17:17:01.214Z,52.22
2022-12-11T17:19:29.171Z,51.47
2022-12-11T17:21:57.707Z,55.35
2022-12-11T17:24:25.625Z,59.13
2022-12-11T17:26:55.393Z,52.65
2022-12-11T17:29:24.307Z,53.28
2022-12-11T17:31:51.941Z,63.17
2022-12-11T17:34:19.792Z,58.67
2022-12-11T17:36:48.310Z,64.57
2022-12-11T17:39:16.627Z,68.63
2022-12-11T17:41:44.334Z,70.65
2022-12-11T17:44:15.608Z,54.55
2022-12-11T17:46:47.033Z,58.08
2022-12-11T17:49:14.678Z,58.03
2022-12-11T17:51:42.363Z,61.17
2022-12-11T17:54:10.917Z,53.17
2022-12-11T17:56:38.559Z,61.20
2022-12-11T17:59:06.236Z,58.58
2022-12-11T18:01:34.160Z,57.22
2022-12-11T18:04:02.354Z,63.22
2022-12-11T18:06:32.545Z,58.33
2022-12-11T18:09:01.168Z,58.50
2022-12-11T18:11:29.688Z,52.38
2022-12-11T18:13:57.664Z,56.20
2022-12-11T18:16:30.986Z,56.40
2022-12-11T18:18:59.446Z,56.63
2022-12-11T18:21:34.478Z,55.53
2022-12-11T18:24:02.787Z,51.83
2022-12-11T18:26:30.402Z,55.88
2022-12-11T18:28:58.295Z,56.40
2022-12-11T18:31:26.149Z,53.97
2022-12-11T18:33:54.182Z,58.15
2022-12-11T18:36:22.561Z,61.40
2022-12-11T18:38:50.256Z,53.78
2022-12-11T18:41:19.401Z,55.58
2022-12-11T18:46:18.179Z,50.85
2022-12-11T18:48:48.236Z,50.00
2022-12-11T18:51:20.478Z,52.10
2022-12-11T18:53:48.175Z,53.50
2022-12-11T18:56:18.751Z,53.88
2022-12-11T18:58:47.261Z,55.53
2022-12-11T19:01:25.895Z,55.72
2022-12-11T19:04:04.237Z,50.13
2022-12-11T19:06:36.323Z,58.60
2022-12-11T19:09:06.842Z,56.50
2022-12-11T19:11:36.702Z,55.60
2022-12-11T19:14:06.056Z,53.47
2022-12-11T19:19:20.113Z,59.35
2022-12-11T19:21:49.218Z,60.30
2022-12-11T19:24:23.165Z,61.88
2022-12-11T19:26:51.415Z,61.42
2022-12-11T19:29:34.191Z,66.70
2022-12-11T19:32:05.340Z,64.43
2022-12-11T19:34:33.101Z,58.17
2022-12-11T19:37:00.803Z,59.35
2022-12-11T19:39:29.297Z,61.17
2022-12-11T19:41:57.295Z,62.95
2022-12-11T19:44:51.002Z,61.33
2022-12-11T19:47:18.653Z,66.25
2022-12-11T19:49:48.582Z,60.40
2022-12-11T19:52:16.808Z,69.93
2022-12-11T19:54:50.663Z,62.05
2022-12-11T19:57:18.591Z,59.65
2022-12-11T19:59:56.785Z,64.13
2022-12-11T20:02:25.644Z,54.78
2022-12-11T20:04:54.118Z,64.95
2022-12-11T20:07:26.106Z,64.40
2022-12-11T20:10:00.106Z,63.28
2022-12-11T20:12:28.505Z,70.68
2022-12-11T20:14:56.223Z,61.10
2022-12-11T20:17:25.594Z,59.30
2022-12-11T20:19:53.649Z,62.60
2022-12-11T20:22:21.592Z,64.55
2022-12-11T20:24:49.268Z,55.47
2022-12-11T20:27:16.935Z,59.80
2022-12-11T20:29:44.769Z,55.58
2022-12-11T20:32:12.613Z,57.20
2022-12-11T20:34:40.425Z,54.47
2022-12-11T20:37:08.312Z,59.65
2022-12-11T20:39:36.697Z,58.17
2022-12-11T20:42:05.006Z,62.28
2022-12-11T20:44:34.852Z,58.58
2022-12-11T20:47:02.820Z,52.08
2022-12-11T20:49:30.554Z,55.70
2022-12-11T20:51:59.617Z,54.78
2022-12-11T20:56:54.942Z,49.58
2022-12-11T20:59:23.436Z,48.88
2022-12-11T21:01:51.613Z,56.80
2022-12-11T21:04:19.927Z,53.15
2022-12-11T21:06:55.097Z,49.63
2022-12-11T21:09:25.714Z,51.42
2022-12-11T21:12:00.893Z,58.25
2022-12-11T21:14:30.180Z,54.78
2022-12-11T21:16:59.249Z,56.83
2022-12-11T21:19:27.494Z,52.40
2022-12-11T21:21:56.273Z,62.58
2022-12-11T21:24:27.574Z,52.75
2022-12-11T21:26:58.298Z,61.08
2022-12-11T21:29:29.229Z,56.65
2022-12-11T21:31:57.631Z,53.88
2022-12-11T21:34:26.046Z,57.65
2022-12-11T21:36:57.040Z,59.70
2022-12-11T21:39:28.252Z,56.33
2022-12-11T21:41:58.052Z,52.97
2022-12-11T21:45:37.525Z,51.38
2022-12-11T21:47:41.576Z,48.42
2022-12-11T21:50:09.488Z,47.78
2022-12-11T21:52:39.151Z,52.05
2022-12-11T21:55:07.946Z,44.45
2022-12-11T21:57:35.540Z,47.90
2022-12-11T22:00:04.736Z,51.13
2022-12-11T22:02:46.041Z,47.80
2022-12-11T22:05:14.036Z,54.78
2022-12-11T22:07:42.008Z,50.33
2022-12-11T22:10:10.275Z,49.25
2022-12-11T22:12:38.172Z,50.65
2022-12-11T22:15:06.893Z,42.25
2022-12-11T22:17:36.264Z,45.38
2022-12-11T22:20:06.291Z,44.95
2022-12-11T22:22:34.424Z,36.30
2022-12-11T22:25:03.612Z,42.58
2022-12-11T22:27:31.264Z,34.75
2022-12-11T22:29:59.062Z,37.40
2022-12-11T22:32:27.654Z,40.63
2022-12-11T22:34:57.657Z,36.70
2022-12-11T22:37:25.850Z,37.95
2022-12-11T22:39:53.730Z,41.67
2022-12-11T22:42:21.469Z,41.25
2022-12-11T22:44:49.514Z,43.47
2022-12-11T22:47:17.298Z,45.92
2022-12-11T22:49:45.077Z,46.40
2022-12-11T22:52:12.957Z,44.55
2022-12-11T22:54:42.131Z,45.13
2022-12-11T22:59:38.355Z,38.10
2022-12-11T23:02:06.375Z,41.08
2022-12-11T23:04:34.312Z,39.25
2022-12-11T23:07:02.003Z,44.97
2022-12-11T23:09:29.871Z,46.20
2022-12-11T23:11:58.532Z,38.83
2022-12-11T23:14:26.703Z,41.92
2022-12-11T23:16:54.604Z,41.27
2022-12-11T23:19:25.564Z,39.97
2022-12-11T23:21:54.648Z,39.45
2022-12-11T23:26:50.498Z,37.25
2022-12-11T23:29:18.100Z,42.05
2022-12-11T23:31:46.391Z,48.03
2022-12-11T23:34:13.963Z,50.75
2022-12-11T23:36:41.652Z,49.83
2022-12-11T23:39:09.296Z,45.92
2022-12-11T23:41:37.046Z,45.53
2022-12-11T23:44:04.834Z,47.50
2022-12-11T23:46:33.009Z,47.25
2022-12-11T23:49:00.963Z,48.45
2022-12-11T23:51:28.745Z,40.35
2022-12-11T23:53:56.511Z,45.90
2022-12-11T23:56:27.781Z,47.42
2022-12-11T23:58:56.564Z,41.35
